sensor_id;sensor_type;location;lat;lon;timestamp;P1;durP1;ratioP1;P2;durP2;ratioP2
24619;SDS011;12763;55.802;37.404;2023-06-22T00:02:14;23.48;;;7.68;;
24619;SDS011;12763;55.802;37.404;2023-06-22T00:04:40;19.42;;;7.10;;
24619;SDS011;12763;55.802;37.404;2023-06-22T00:07:06;20.33;;;7.97;;
24619;SDS011;12763;55.802;37.404;2023-06-22T00:09:32;17.77;;;8.05;;
24619;SDS011;12763;55.802;37.404;2023-06-22T00:11:58;25.10;;;7.90;;
24619;SDS011;12763;55.802;37.404;2023-06-22T00:14:25;17.63;;;7.05;;
24619;SDS011;12763;55.802;37.404;2023-06-22T00:16:51;15.65;;;6.82;;
24619;SDS011;12763;55.802;37.404;2023-06-22T00:19:21;15.23;;;7.72;;
24619;SDS011;12763;55.802;37.404;2023-06-22T00:21:47;15.27;;;7.07;;
24619;SDS011;12763;55.802;37.404;2023-06-22T00:24:21;20.17;;;7.78;;
24619;SDS011;12763;55.802;37.404;2023-06-22T00:26:49;14.40;;;7.68;;
24619;SDS011;12763;55.802;37.404;2023-06-22T00:29:16;19.13;;;8.15;;
24619;SDS011;12763;55.802;37.404;2023-06-22T00:31:42;17.25;;;6.90;;
24619;SDS011;12763;55.802;37.404;2023-06-22T00:34:08;22.23;;;8.10;;
24619;SDS011;12763;55.802;37.404;2023-06-22T00:36:35;21.08;;;8.18;;
24619;SDS011;12763;55.802;37.404;2023-06-22T00:39:03;21.77;;;7.60;;
24619;SDS011;12763;55.802;37.404;2023-06-22T00:41:30;13.27;;;6.40;;
24619;SDS011;12763;55.802;37.404;2023-06-22T00:43:57;17.67;;;8.07;;
24619;SDS011;12763;55.802;37.404;2023-06-22T00:46:23;16.05;;;7.93;;
24619;SDS011;12763;55.802;37.404;2023-06-22T00:48:50;28.00;;;7.80;;
24619;SDS011;12763;55.802;37.404;2023-06-22T00:51:17;18.48;;;7.20;;
24619;SDS011;12763;55.802;37.404;2023-06-22T00:53:50;19.17;;;7.95;;
24619;SDS011;12763;55.802;37.404;2023-06-22T00:56:19;17.90;;;7.60;;
24619;SDS011;12763;55.802;37.404;2023-06-22T00:58:49;20.75;;;7.95;;
24619;SDS011;12763;55.802;37.404;2023-06-22T01:01:18;17.52;;;7.80;;
24619;SDS011;12763;55.802;37.404;2023-06-22T01:03:49;21.40;;;7.60;;
24619;SDS011;12763;55.802;37.404;2023-06-22T01:06:19;24.10;;;9.38;;
24619;SDS011;12763;55.802;37.404;2023-06-22T01:11:31;25.92;;;9.02;;
24619;SDS011;12763;55.802;37.404;2023-06-22T01:14:06;36.22;;;12.82;;
24619;SDS011;12763;55.802;37.404;2023-06-22T01:16:41;28.83;;;11.15;;
24619;SDS011;12763;55.802;37.404;2023-06-22T01:19:35;30.13;;;11.73;;
24619;SDS011;12763;55.802;37.404;2023-06-22T01:22:17;47.72;;;15.30;;
24619;SDS011;12763;55.802;37.404;2023-06-22T01:30:41;27.02;;;10.98;;
24619;SDS011;12763;55.802;37.404;2023-06-22T01:33:12;33.42;;;11.30;;
24619;SDS011;12763;55.802;37.404;2023-06-22T01:35:39;30.40;;;10.90;;
24619;SDS011;12763;55.802;37.404;2023-06-22T01:38:05;25.17;;;9.95;;
24619;SDS011;12763;55.802;37.404;2023-06-22T01:40:33;22.25;;;10.55;;
24619;SDS011;12763;55.802;37.404;2023-06-22T01:43:01;24.10;;;10.40;;
24619;SDS011;12763;55.802;37.404;2023-06-22T01:45:28;23.58;;;10.30;;
24619;SDS011;12763;55.802;37.404;2023-06-22T01:47:56;20.33;;;10.48;;
24619;SDS011;12763;55.802;37.404;2023-06-22T01:50:22;27.20;;;10.75;;
24619;SDS011;12763;55.802;37.404;2023-06-22T01:52:48;22.27;;;10.25;;
24619;SDS011;12763;55.802;37.404;2023-06-22T01:55:14;28.65;;;9.27;;
24619;SDS011;12763;55.802;37.404;2023-06-22T01:57:40;24.15;;;8.90;;
24619;SDS011;12763;55.802;37.404;2023-06-22T02:00:14;21.73;;;8.85;;
24619;SDS011;12763;55.802;37.404;2023-06-22T02:05:15;19.75;;;9.15;;
24619;SDS011;12763;55.802;37.404;2023-06-22T02:08:27;26.38;;;9.82;;
24619;SDS011;12763;55.802;37.404;2023-06-22T02:10:37;23.52;;;9.52;;
24619;SDS011;12763;55.802;37.404;2023-06-22T02:13:07;23.58;;;10.02;;
24619;SDS011;12763;55.802;37.404;2023-06-22T02:15:36;22.80;;;10.07;;
24619;SDS011;12763;55.802;37.404;2023-06-22T02:18:02;30.13;;;10.10;;
24619;SDS011;12763;55.802;37.404;2023-06-22T02:20:49;28.50;;;9.70;;
24619;SDS011;12763;55.802;37.404;2023-06-22T02:23:14;14.98;;;6.60;;
24619;SDS011;12763;55.802;37.404;2023-06-22T02:25:40;12.68;;;5.63;;
24619;SDS011;12763;55.802;37.404;2023-06-22T02:28:10;13.38;;;7.43;;
24619;SDS011;12763;55.802;37.404;2023-06-22T02:30:37;12.65;;;5.93;;
24619;SDS011;12763;55.802;37.404;2023-06-22T02:33:07;17.27;;;7.53;;
24619;SDS011;12763;55.802;37.404;2023-06-22T02:35:33;14.90;;;5.88;;
24619;SDS011;12763;55.802;37.404;2023-06-22T02:38:03;13.00;;;6.65;;
24619;SDS011;12763;55.802;37.404;2023-06-22T02:40:30;17.88;;;6.53;;
24619;SDS011;12763;55.802;37.404;2023-06-22T02:42:57;15.40;;;6.68;;
24619;SDS011;12763;55.802;37.404;2023-06-22T02:45:28;13.00;;;6.38;;
24619;SDS011;12763;55.802;37.404;2023-06-22T02:47:54;12.23;;;6.45;;
24619;SDS011;12763;55.802;37.404;2023-06-22T02:50:21;10.70;;;5.35;;
24619;SDS011;12763;55.802;37.404;2023-06-22T02:52:47;7.72;;;5.22;;
24619;SDS011;12763;55.802;37.404;2023-06-22T02:55:14;14.43;;;6.18;;
24619;SDS011;12763;55.802;37.404;2023-06-22T02:57:42;12.02;;;5.95;;
24619;SDS011;12763;55.802;37.404;2023-06-22T03:00:11;10.80;;;5.20;;
24619;SDS011;12763;55.802;37.404;2023-06-22T03:02:48;13.65;;;5.13;;
24619;SDS011;12763;55.802;37.404;2023-06-22T03:05:15;11.70;;;5.40;;
24619;SDS011;12763;55.802;37.404;2023-06-22T03:07:45;10.25;;;5.53;;
24619;SDS011;12763;55.802;37.404;2023-06-22T03:10:12;12.60;;;5.38;;
24619;SDS011;12763;55.802;37.404;2023-06-22T03:12:39;9.75;;;5.70;;
24619;SDS011;12763;55.802;37.404;2023-06-22T03:15:06;14.98;;;6.22;;
24619;SDS011;12763;55.802;37.404;2023-06-22T03:17:33;16.10;;;6.72;;
24619;SDS011;12763;55.802;37.404;2023-06-22T03:20:01;16.05;;;6.72;;
24619;SDS011;12763;55.802;37.404;2023-06-22T03:22:30;14.80;;;5.97;;
24619;SDS011;12763;55.802;37.404;2023-06-22T03:24:56;15.65;;;6.18;;
24619;SDS011;12763;55.802;37.404;2023-06-22T03:27:21;10.95;;;5.80;;
24619;SDS011;12763;55.802;37.404;2023-06-22T03:29:47;12.25;;;5.72;;
24619;SDS011;12763;55.802;37.404;2023-06-22T03:32:13;11.65;;;5.43;;
24619;SDS011;12763;55.802;37.404;2023-06-22T03:34:39;17.25;;;6.35;;
24619;SDS011;12763;55.802;37.404;2023-06-22T03:37:05;8.32;;;6.18;;
24619;SDS011;12763;55.802;37.404;2023-06-22T03:39:31;17.70;;;6.30;;
24619;SDS011;12763;55.802;37.404;2023-06-22T03:41:57;10.63;;;6.03;;
24619;SDS011;12763;55.802;37.404;2023-06-22T03:44:23;11.75;;;5.65;;
24619;SDS011;12763;55.802;37.404;2023-06-22T03:46:49;12.02;;;5.53;;
24619;SDS011;12763;55.802;37.404;2023-06-22T03:49:18;10.57;;;5.25;;
24619;SDS011;12763;55.802;37.404;2023-06-22T03:51:44;11.18;;;5.63;;
24619;SDS011;12763;55.802;37.404;2023-06-22T03:54:09;9.32;;;5.88;;
24619;SDS011;12763;55.802;37.404;2023-06-22T03:56:35;8.38;;;5.00;;
24619;SDS011;12763;55.802;37.404;2023-06-22T03:59:02;11.10;;;5.18;;
24619;SDS011;12763;55.802;37.404;2023-06-22T04:01:28;8.60;;;5.25;;
24619;SDS011;12763;55.802;37.404;2023-06-22T04:03:54;9.50;;;5.38;;
24619;SDS011;12763;55.802;37.404;2023-06-22T04:06:20;10.52;;;4.72;;
24619;SDS011;12763;55.802;37.404;2023-06-22T04:08:46;15.80;;;5.75;;
24619;SDS011;12763;55.802;37.404;2023-06-22T04:11:16;10.20;;;5.43;;
24619;SDS011;12763;55.802;37.404;2023-06-22T04:13:43;11.50;;;5.38;;
24619;SDS011;12763;55.802;37.404;2023-06-22T04:16:09;12.30;;;5.68;;
24619;SDS011;12763;55.802;37.404;2023-06-22T04:18:35;9.30;;;5.00;;
24619;SDS011;12763;55.802;37.404;2023-06-22T04:21:02;12.10;;;5.13;;
24619;SDS011;12763;55.802;37.404;2023-06-22T04:23:28;10.88;;;5.70;;
24619;SDS011;12763;55.802;37.404;2023-06-22T04:25:54;9.68;;;5.78;;
24619;SDS011;12763;55.802;37.404;2023-06-22T04:28:22;10.13;;;5.40;;
24619;SDS011;12763;55.802;37.404;2023-06-22T04:30:48;10.02;;;6.05;;
24619;SDS011;12763;55.802;37.404;2023-06-22T04:33:14;12.50;;;6.00;;
24619;SDS011;12763;55.802;37.404;2023-06-22T04:35:41;8.77;;;6.25;;
24619;SDS011;12763;55.802;37.404;2023-06-22T04:38:11;14.88;;;6.38;;
24619;SDS011;12763;55.802;37.404;2023-06-22T04:40:39;12.60;;;6.68;;
24619;SDS011;12763;55.802;37.404;2023-06-22T04:43:05;14.23;;;6.65;;
24619;SDS011;12763;55.802;37.404;2023-06-22T04:45:32;11.90;;;6.00;;
24619;SDS011;12763;55.802;37.404;2023-06-22T04:47:59;10.20;;;6.05;;
24619;SDS011;12763;55.802;37.404;2023-06-22T04:50:25;21.40;;;6.47;;
24619;SDS011;12763;55.802;37.404;2023-06-22T04:52:51;10.98;;;5.53;;
24619;SDS011;12763;55.802;37.404;2023-06-22T04:55:17;10.45;;;5.68;;
24619;SDS011;12763;55.802;37.404;2023-06-22T04:57:46;12.55;;;6.20;;
24619;SDS011;12763;55.802;37.404;2023-06-22T05:00:16;9.07;;;5.80;;
24619;SDS011;12763;55.802;37.404;2023-06-22T05:02:45;9.23;;;5.95;;
24619;SDS011;12763;55.802;37.404;2023-06-22T05:05:13;13.32;;;5.72;;
24619;SDS011;12763;55.802;37.404;2023-06-22T05:07:43;11.38;;;5.80;;
24619;SDS011;12763;55.802;37.404;2023-06-22T05:10:11;15.70;;;6.68;;
24619;SDS011;12763;55.802;37.404;2023-06-22T05:12:40;14.65;;;5.88;;
24619;SDS011;12763;55.802;37.404;2023-06-22T05:15:07;14.38;;;5.90;;
24619;SDS011;12763;55.802;37.404;2023-06-22T05:17:34;15.48;;;5.78;;
24619;SDS011;12763;55.802;37.404;2023-06-22T05:20:01;13.02;;;5.15;;
24619;SDS011;12763;55.802;37.404;2023-06-22T05:22:32;12.75;;;5.57;;
24619;SDS011;12763;55.802;37.404;2023-06-22T05:24:58;18.05;;;6.53;;
24619;SDS011;12763;55.802;37.404;2023-06-22T05:27:24;10.88;;;5.45;;
24619;SDS011;12763;55.802;37.404;2023-06-22T05:29:49;12.95;;;5.40;;
24619;SDS011;12763;55.802;37.404;2023-06-22T05:32:15;9.15;;;4.68;;
24619;SDS011;12763;55.802;37.404;2023-06-22T05:34:41;13.10;;;5.68;;
24619;SDS011;12763;55.802;37.404;2023-06-22T05:37:07;12.02;;;5.40;;
24619;SDS011;12763;55.802;37.404;2023-06-22T05:39:35;14.85;;;5.68;;
24619;SDS011;12763;55.802;37.404;2023-06-22T05:42:04;9.52;;;4.85;;
24619;SDS011;12763;55.802;37.404;2023-06-22T05:44:31;11.38;;;4.72;;
24619;SDS011;12763;55.802;37.404;2023-06-22T05:46:57;9.43;;;5.25;;
24619;SDS011;12763;55.802;37.404;2023-06-22T05:49:23;7.57;;;4.70;;
24619;SDS011;12763;55.802;37.404;2023-06-22T05:51:50;10.98;;;5.28;;
24619;SDS011;12763;55.802;37.404;2023-06-22T05:54:16;11.00;;;5.07;;
24619;SDS011;12763;55.802;37.404;2023-06-22T05:56:43;7.00;;;4.22;;
24619;SDS011;12763;55.802;37.404;2023-06-22T05:59:09;6.57;;;3.90;;
24619;SDS011;12763;55.802;37.404;2023-06-22T06:01:35;6.10;;;3.42;;
24619;SDS011;12763;55.802;37.404;2023-06-22T06:04:02;6.75;;;3.40;;
24619;SDS011;12763;55.802;37.404;2023-06-22T06:06:29;8.63;;;3.65;;
24619;SDS011;12763;55.802;37.404;2023-06-22T06:08:55;11.05;;;4.60;;
24619;SDS011;12763;55.802;37.404;2023-06-22T06:11:21;5.32;;;3.53;;
24619;SDS011;12763;55.802;37.404;2023-06-22T06:13:48;5.63;;;3.78;;
24619;SDS011;12763;55.802;37.404;2023-06-22T06:16:13;8.45;;;4.55;;
24619;SDS011;12763;55.802;37.404;2023-06-22T06:18:39;5.35;;;3.40;;
24619;SDS011;12763;55.802;37.404;2023-06-22T06:21:05;7.63;;;4.53;;
24619;SDS011;12763;55.802;37.404;2023-06-22T06:23:31;7.93;;;4.57;;
24619;SDS011;12763;55.802;37.404;2023-06-22T06:25:57;7.38;;;3.80;;
24619;SDS011;12763;55.802;37.404;2023-06-22T06:28:24;6.78;;;3.05;;
24619;SDS011;12763;55.802;37.404;2023-06-22T06:30:50;7.65;;;4.28;;
24619;SDS011;12763;55.802;37.404;2023-06-22T06:33:17;6.97;;;3.40;;
24619;SDS011;12763;55.802;37.404;2023-06-22T06:35:43;10.02;;;3.75;;
24619;SDS011;12763;55.802;37.404;2023-06-22T06:38:09;5.65;;;3.75;;
24619;SDS011;12763;55.802;37.404;2023-06-22T06:40:34;4.80;;;3.58;;
24619;SDS011;12763;55.802;37.404;2023-06-22T06:43:00;5.60;;;3.60;;
24619;SDS011;12763;55.802;37.404;2023-06-22T06:45:27;6.95;;;3.72;;
24619;SDS011;12763;55.802;37.404;2023-06-22T06:47:54;10.02;;;4.05;;
24619;SDS011;12763;55.802;37.404;2023-06-22T06:50:20;6.25;;;3.88;;
24619;SDS011;12763;55.802;37.404;2023-06-22T06:52:46;8.07;;;3.95;;
24619;SDS011;12763;55.802;37.404;2023-06-22T06:55:12;6.35;;;3.88;;
24619;SDS011;12763;55.802;37.404;2023-06-22T06:57:39;9.07;;;3.72;;
24619;SDS011;12763;55.802;37.404;2023-06-22T07:00:07;7.13;;;3.55;;
24619;SDS011;12763;55.802;37.404;2023-06-22T07:02:37;6.15;;;3.70;;
24619;SDS011;12763;55.802;37.404;2023-06-22T07:05:05;6.43;;;3.95;;
24619;SDS011;12763;55.802;37.404;2023-06-22T07:07:32;9.23;;;3.55;;
24619;SDS011;12763;55.802;37.404;2023-06-22T07:09:58;7.30;;;3.80;;
24619;SDS011;12763;55.802;37.404;2023-06-22T07:12:24;8.30;;;3.88;;
24619;SDS011;12763;55.802;37.404;2023-06-22T07:14:51;4.07;;;3.63;;
24619;SDS011;12763;55.802;37.404;2023-06-22T07:17:17;4.18;;;3.05;;
24619;SDS011;12763;55.802;37.404;2023-06-22T07:19:43;5.07;;;3.38;;
24619;SDS011;12763;55.802;37.404;2023-06-22T07:22:09;8.45;;;3.90;;
24619;SDS011;12763;55.802;37.404;2023-06-22T07:24:35;6.05;;;3.45;;
24619;SDS011;12763;55.802;37.404;2023-06-22T07:27:02;5.88;;;3.70;;
24619;SDS011;12763;55.802;37.404;2023-06-22T07:29:29;6.05;;;3.53;;
24619;SDS011;12763;55.802;37.404;2023-06-22T07:31:55;5.63;;;3.53;;
24619;SDS011;12763;55.802;37.404;2023-06-22T07:34:22;6.32;;;3.47;;
24619;SDS011;12763;55.802;37.404;2023-06-22T07:36:48;7.60;;;3.72;;
24619;SDS011;12763;55.802;37.404;2023-06-22T07:39:14;5.32;;;3.75;;
24619;SDS011;12763;55.802;37.404;2023-06-22T07:41:43;6.38;;;3.67;;
24619;SDS011;12763;55.802;37.404;2023-06-22T07:44:09;4.35;;;3.35;;
24619;SDS011;12763;55.802;37.404;2023-06-22T07:46:36;5.70;;;3.85;;
24619;SDS011;12763;55.802;37.404;2023-06-22T07:49:02;5.13;;;3.22;;
24619;SDS011;12763;55.802;37.404;2023-06-22T07:51:28;6.13;;;4.07;;
24619;SDS011;12763;55.802;37.404;2023-06-22T07:53:54;3.45;;;2.88;;
24619;SDS011;12763;55.802;37.404;2023-06-22T07:56:20;7.28;;;3.85;;
24619;SDS011;12763;55.802;37.404;2023-06-22T07:58:46;8.75;;;4.10;;
24619;SDS011;12763;55.802;37.404;2023-06-22T08:01:16;10.30;;;3.38;;
24619;SDS011;12763;55.802;37.404;2023-06-22T08:03:42;11.45;;;3.58;;
24619;SDS011;12763;55.802;37.404;2023-06-22T08:06:09;8.18;;;3.75;;
24619;SDS011;12763;55.802;37.404;2023-06-22T08:08:35;8.23;;;3.95;;
24619;SDS011;12763;55.802;37.404;2023-06-22T08:11:02;11.20;;;4.25;;
24619;SDS011;12763;55.802;37.404;2023-06-22T08:13:28;7.25;;;3.70;;
24619;SDS011;12763;55.802;37.404;2023-06-22T08:15:54;7.00;;;4.60;;
24619;SDS011;12763;55.802;37.404;2023-06-22T08:18:20;7.10;;;3.78;;
24619;SDS011;12763;55.802;37.404;2023-06-22T08:20:46;8.60;;;4.10;;
24619;SDS011;12763;55.802;37.404;2023-06-22T08:23:12;6.15;;;3.97;;
24619;SDS011;12763;55.802;37.404;2023-06-22T08:25:39;8.45;;;3.92;;
24619;SDS011;12763;55.802;37.404;2023-06-22T08:28:05;9.75;;;4.10;;
24619;SDS011;12763;55.802;37.404;2023-06-22T08:30:31;8.05;;;4.18;;
24619;SDS011;12763;55.802;37.404;2023-06-22T08:32:57;6.78;;;4.00;;
24619;SDS011;12763;55.802;37.404;2023-06-22T08:35:23;8.88;;;4.20;;
24619;SDS011;12763;55.802;37.404;2023-06-22T08:37:49;8.23;;;4.15;;
24619;SDS011;12763;55.802;37.404;2023-06-22T08:40:18;8.63;;;4.00;;
24619;SDS011;12763;55.802;37.404;2023-06-22T08:42:45;9.52;;;4.20;;
24619;SDS011;12763;55.802;37.404;2023-06-22T08:45:14;8.63;;;4.40;;
24619;SDS011;12763;55.802;37.404;2023-06-22T08:47:41;9.95;;;4.05;;
24619;SDS011;12763;55.802;37.404;2023-06-22T08:50:08;8.73;;;3.70;;
24619;SDS011;12763;55.802;37.404;2023-06-22T08:52:35;9.50;;;4.07;;
24619;SDS011;12763;55.802;37.404;2023-06-22T08:55:02;9.80;;;3.92;;
24619;SDS011;12763;55.802;37.404;2023-06-22T08:57:32;7.90;;;4.72;;
24619;SDS011;12763;55.802;37.404;2023-06-22T08:59:59;5.10;;;3.90;;
24619;SDS011;12763;55.802;37.404;2023-06-22T09:02:25;5.18;;;3.88;;
24619;SDS011;12763;55.802;37.404;2023-06-22T09:04:57;8.85;;;4.32;;
24619;SDS011;12763;55.802;37.404;2023-06-22T09:07:24;8.32;;;4.22;;
24619;SDS011;12763;55.802;37.404;2023-06-22T09:09:51;6.20;;;4.22;;
24619;SDS011;12763;55.802;37.404;2023-06-22T09:12:31;8.80;;;4.03;;
24619;SDS011;12763;55.802;37.404;2023-06-22T09:15:38;7.20;;;3.83;;
24619;SDS011;12763;55.802;37.404;2023-06-22T09:21:20;7.82;;;4.32;;
24619;SDS011;12763;55.802;37.404;2023-06-22T09:24:06;6.43;;;4.22;;
24619;SDS011;12763;55.802;37.404;2023-06-22T09:26:32;11.38;;;3.90;;
24619;SDS011;12763;55.802;37.404;2023-06-22T09:29:01;10.18;;;4.03;;
24619;SDS011;12763;55.802;37.404;2023-06-22T09:32:06;15.00;;;5.35;;
24619;SDS011;12763;55.802;37.404;2023-06-22T09:34:39;6.93;;;4.35;;
24619;SDS011;12763;55.802;37.404;2023-06-22T09:37:26;7.18;;;3.92;;
24619;SDS011;12763;55.802;37.404;2023-06-22T09:39:52;8.55;;;4.05;;
24619;SDS011;12763;55.802;37.404;2023-06-22T09:42:18;10.05;;;4.55;;
24619;SDS011;12763;55.802;37.404;2023-06-22T09:44:44;6.85;;;4.13;;
24619;SDS011;12763;55.802;37.404;2023-06-22T09:47:09;7.63;;;4.22;;
24619;SDS011;12763;55.802;37.404;2023-06-22T09:49:35;7.45;;;4.63;;
24619;SDS011;12763;55.802;37.404;2023-06-22T09:52:01;5.85;;;3.90;;
24619;SDS011;12763;55.802;37.404;2023-06-22T09:54:27;7.18;;;4.30;;
24619;SDS011;12763;55.802;37.404;2023-06-22T09:56:55;8.00;;;4.38;;
24619;SDS011;12763;55.802;37.404;2023-06-22T09:59:24;7.32;;;4.40;;
24619;SDS011;12763;55.802;37.404;2023-06-22T10:01:53;6.00;;;4.20;;
24619;SDS011;12763;55.802;37.404;2023-06-22T10:04:22;12.45;;;4.40;;
24619;SDS011;12763;55.802;37.404;2023-06-22T10:06:52;6.40;;;4.00;;
24619;SDS011;12763;55.802;37.404;2023-06-22T10:12:10;10.35;;;4.60;;
24619;SDS011;12763;55.802;37.404;2023-06-22T10:14:39;6.95;;;4.32;;
24619;SDS011;12763;55.802;37.404;2023-06-22T10:17:05;8.55;;;4.90;;
24619;SDS011;12763;55.802;37.404;2023-06-22T10:19:36;7.57;;;4.10;;
24619;SDS011;12763;55.802;37.404;2023-06-22T10:22:06;10.50;;;4.28;;
24619;SDS011;12763;55.802;37.404;2023-06-22T10:24:34;7.55;;;4.68;;
24619;SDS011;12763;55.802;37.404;2023-06-22T10:27:06;6.75;;;3.92;;
24619;SDS011;12763;55.802;37.404;2023-06-22T10:29:33;8.77;;;4.80;;
24619;SDS011;12763;55.802;37.404;2023-06-22T10:32:06;11.98;;;4.55;;
24619;SDS011;12763;55.802;37.404;2023-06-22T10:34:40;6.70;;;4.20;;
24619;SDS011;12763;55.802;37.404;2023-06-22T10:37:09;7.50;;;4.57;;
24619;SDS011;12763;55.802;37.404;2023-06-22T10:40:00;11.57;;;4.60;;
24619;SDS011;12763;55.802;37.404;2023-06-22T10:42:26;5.55;;;4.28;;
24619;SDS011;12763;55.802;37.404;2023-06-22T10:44:52;6.82;;;4.53;;
24619;SDS011;12763;55.802;37.404;2023-06-22T10:47:18;7.63;;;4.10;;
24619;SDS011;12763;55.802;37.404;2023-06-22T10:49:44;5.55;;;4.15;;
24619;SDS011;12763;55.802;37.404;2023-06-22T10:52:10;6.03;;;4.47;;
24619;SDS011;12763;55.802;37.404;2023-06-22T10:54:36;6.82;;;4.07;;
24619;SDS011;12763;55.802;37.404;2023-06-22T10:57:03;6.65;;;4.05;;
24619;SDS011;12763;55.802;37.404;2023-06-22T10:59:29;8.73;;;4.70;;
24619;SDS011;12763;55.802;37.404;2023-06-22T11:01:56;6.40;;;4.28;;
24619;SDS011;12763;55.802;37.404;2023-06-22T11:04:23;9.50;;;5.10;;
24619;SDS011;12763;55.802;37.404;2023-06-22T11:06:51;5.53;;;4.63;;
24619;SDS011;12763;55.802;37.404;2023-06-22T11:09:18;7.60;;;4.70;;
24619;SDS011;12763;55.802;37.404;2023-06-22T11:11:49;8.80;;;4.32;;
24619;SDS011;12763;55.802;37.404;2023-06-22T11:14:19;5.65;;;4.43;;
24619;SDS011;12763;55.802;37.404;2023-06-22T11:16:45;6.47;;;4.50;;
24619;SDS011;12763;55.802;37.404;2023-06-22T11:19:14;9.90;;;4.82;;
24619;SDS011;12763;55.802;37.404;2023-06-22T11:21:43;6.80;;;4.30;;
24619;SDS011;12763;55.802;37.404;2023-06-22T11:24:13;7.05;;;4.53;;
24619;SDS011;12763;55.802;37.404;2023-06-22T11:26:39;7.88;;;4.50;;
24619;SDS011;12763;55.802;37.404;2023-06-22T11:29:05;11.50;;;5.00;;
24619;SDS011;12763;55.802;37.404;2023-06-22T11:31:31;5.93;;;4.57;;
24619;SDS011;12763;55.802;37.404;2023-06-22T11:34:03;11.68;;;4.68;;
24619;SDS011;12763;55.802;37.404;2023-06-22T11:36:30;8.75;;;4.53;;
24619;SDS011;12763;55.802;37.404;2023-06-22T11:39:02;7.38;;;4.40;;
24619;SDS011;12763;55.802;37.404;2023-06-22T11:41:28;6.35;;;4.22;;
24619;SDS011;12763;55.802;37.404;2023-06-22T11:43:56;6.45;;;4.85;;
24619;SDS011;12763;55.802;37.404;2023-06-22T11:46:50;5.22;;;4.25;;
24619;SDS011;12763;55.802;37.404;2023-06-22T11:49:18;6.65;;;4.50;;
24619;SDS011;12763;55.802;37.404;2023-06-22T11:51:44;7.75;;;4.75;;
24619;SDS011;12763;55.802;37.404;2023-06-22T11:54:10;9.00;;;4.57;;
24619;SDS011;12763;55.802;37.404;2023-06-22T11:56:36;6.82;;;4.25;;
24619;SDS011;12763;55.802;37.404;2023-06-22T11:59:02;6.85;;;4.60;;
24619;SDS011;12763;55.802;37.404;2023-06-22T12:01:31;7.70;;;4.70;;
24619;SDS011;12763;55.802;37.404;2023-06-22T12:03:59;8.32;;;4.63;;
24619;SDS011;12763;55.802;37.404;2023-06-22T12:06:24;5.55;;;4.50;;
24619;SDS011;12763;55.802;37.404;2023-06-22T12:08:50;7.38;;;4.65;;
24619;SDS011;12763;55.802;37.404;2023-06-22T12:11:16;5.22;;;4.15;;
24619;SDS011;12763;55.802;37.404;2023-06-22T12:13:42;6.10;;;4.90;;
24619;SDS011;12763;55.802;37.404;2023-06-22T12:16:08;4.72;;;4.05;;
24619;SDS011;12763;55.802;37.404;2023-06-22T12:18:35;6.95;;;4.68;;
24619;SDS011;12763;55.802;37.404;2023-06-22T12:21:01;10.25;;;4.45;;
24619;SDS011;12763;55.802;37.404;2023-06-22T12:23:29;8.60;;;4.95;;
24619;SDS011;12763;55.802;37.404;2023-06-22T12:25:55;5.28;;;4.30;;
24619;SDS011;12763;55.802;37.404;2023-06-22T12:28:23;6.82;;;4.05;;
24619;SDS011;12763;55.802;37.404;2023-06-22T12:30:52;4.45;;;3.67;;
24619;SDS011;12763;55.802;37.404;2023-06-22T12:33:22;4.70;;;3.65;;
24619;SDS011;12763;55.802;37.404;2023-06-22T12:35:56;10.55;;;4.05;;
24619;SDS011;12763;55.802;37.404;2023-06-22T12:38:28;5.18;;;4.18;;
24619;SDS011;12763;55.802;37.404;2023-06-22T12:40:56;7.70;;;3.92;;
24619;SDS011;12763;55.802;37.404;2023-06-22T12:43:24;14.18;;;5.53;;
24619;SDS011;12763;55.802;37.404;2023-06-22T12:45:51;5.43;;;4.18;;
24619;SDS011;12763;55.802;37.404;2023-06-22T12:48:16;5.53;;;4.53;;
24619;SDS011;12763;55.802;37.404;2023-06-22T12:50:46;7.55;;;4.68;;
24619;SDS011;12763;55.802;37.404;2023-06-22T12:53:17;19.63;;;4.72;;
24619;SDS011;12763;55.802;37.404;2023-06-22T12:55:50;8.27;;;4.25;;
24619;SDS011;12763;55.802;37.404;2023-06-22T12:58:36;7.35;;;4.45;;
24619;SDS011;12763;55.802;37.404;2023-06-22T13:01:33;10.30;;;4.10;;
24619;SDS011;12763;55.802;37.404;2023-06-22T13:04:01;6.50;;;4.43;;
24619;SDS011;12763;55.802;37.404;2023-06-22T13:06:38;9.52;;;4.65;;
24619;SDS011;12763;55.802;37.404;2023-06-22T13:09:04;5.45;;;4.45;;
24619;SDS011;12763;55.802;37.404;2023-06-22T13:11:31;4.72;;;3.97;;
24619;SDS011;12763;55.802;37.404;2023-06-22T13:13:57;8.35;;;4.18;;
24619;SDS011;12763;55.802;37.404;2023-06-22T13:16:23;9.40;;;4.10;;
24619;SDS011;12763;55.802;37.404;2023-06-22T13:18:51;10.88;;;5.15;;
24619;SDS011;12763;55.802;37.404;2023-06-22T13:21:17;8.50;;;4.13;;
24619;SDS011;12763;55.802;37.404;2023-06-22T13:23:43;6.38;;;4.30;;
24619;SDS011;12763;55.802;37.404;2023-06-22T13:26:09;5.95;;;4.20;;
24619;SDS011;12763;55.802;37.404;2023-06-22T13:28:37;5.40;;;4.60;;
24619;SDS011;12763;55.802;37.404;2023-06-22T13:31:03;5.15;;;4.05;;
24619;SDS011;12763;55.802;37.404;2023-06-22T13:33:29;7.40;;;4.60;;
24619;SDS011;12763;55.802;37.404;2023-06-22T13:35:55;8.80;;;4.88;;
24619;SDS011;12763;55.802;37.404;2023-06-22T13:38:21;6.95;;;4.32;;
24619;SDS011;12763;55.802;37.404;2023-06-22T13:40:48;6.63;;;4.13;;
24619;SDS011;12763;55.802;37.404;2023-06-22T13:43:14;11.20;;;4.32;;
24619;SDS011;12763;55.802;37.404;2023-06-22T13:45:41;6.20;;;4.03;;
24619;SDS011;12763;55.802;37.404;2023-06-22T13:48:07;6.57;;;4.63;;
24619;SDS011;12763;55.802;37.404;2023-06-22T13:50:33;5.15;;;4.28;;
24619;SDS011;12763;55.802;37.404;2023-06-22T13:52:59;4.75;;;4.25;;
24619;SDS011;12763;55.802;37.404;2023-06-22T13:55:25;5.28;;;4.55;;
24619;SDS011;12763;55.802;37.404;2023-06-22T13:57:52;7.18;;;4.35;;
24619;SDS011;12763;55.802;37.404;2023-06-22T14:00:18;5.68;;;4.20;;
24619;SDS011;12763;55.802;37.404;2023-06-22T14:03:14;7.85;;;4.47;;
24619;SDS011;12763;55.802;37.404;2023-06-22T14:05:43;5.70;;;4.75;;
24619;SDS011;12763;55.802;37.404;2023-06-22T14:08:09;11.32;;;6.07;;
24619;SDS011;12763;55.802;37.404;2023-06-22T14:10:35;8.23;;;4.38;;
24619;SDS011;12763;55.802;37.404;2023-06-22T14:13:01;6.68;;;4.40;;
24619;SDS011;12763;55.802;37.404;2023-06-22T14:15:26;6.88;;;4.63;;
24619;SDS011;12763;55.802;37.404;2023-06-22T14:17:52;8.02;;;5.63;;
24619;SDS011;12763;55.802;37.404;2023-06-22T14:20:18;6.32;;;4.72;;
24619;SDS011;12763;55.802;37.404;2023-06-22T14:22:44;5.70;;;4.80;;
24619;SDS011;12763;55.802;37.404;2023-06-22T14:25:10;6.45;;;4.32;;
24619;SDS011;12763;55.802;37.404;2023-06-22T14:27:36;14.52;;;5.07;;
24619;SDS011;12763;55.802;37.404;2023-06-22T14:30:01;10.77;;;4.78;;
24619;SDS011;12763;55.802;37.404;2023-06-22T14:32:29;8.75;;;4.40;;
24619;SDS011;12763;55.802;37.404;2023-06-22T14:34:55;6.95;;;4.68;;
24619;SDS011;12763;55.802;37.404;2023-06-22T14:37:21;9.93;;;4.97;;
24619;SDS011;12763;55.802;37.404;2023-06-22T14:39:47;9.43;;;4.40;;
24619;SDS011;12763;55.802;37.404;2023-06-22T14:42:13;8.07;;;4.90;;
24619;SDS011;12763;55.802;37.404;2023-06-22T14:44:38;11.15;;;4.95;;
24619;SDS011;12763;55.802;37.404;2023-06-22T14:47:04;10.10;;;5.25;;
24619;SDS011;12763;55.802;37.404;2023-06-22T14:49:30;6.65;;;4.38;;
24619;SDS011;12763;55.802;37.404;2023-06-22T14:51:56;11.30;;;4.45;;